La Fayette, Ohio
Current Conditions -  °F | °C
As of 10:53 PM on Friday 24 Oct 2014 (Local Time) from KAOH Reporting Station
Broken Clouds Broken Clouds  
Wind Chill: 54°   Ceiling: 3900
Heat Index: 54°   Visibility: 10mi
Dew Point: 44°   Wind: 6mph
Humidity: 69%   Direction: 210°SSW
Pressure: 30.01"   Gusts: NA
Location:  40.7587°N, 83.949°W
Report Text: KAOH 250253Z AUTO 21005KT 10SM BKN039 12/07 A3001 RMK AO2 SLP163 T01220067 55000
Loading
Personal Weather Stations






























Interactive Weather Map
Tropical Storm Tracking
New forecast layout! Learn more

10-Day Weather Forecast

Advertisements
Track Severe Weather on mobile